logo
Search for airport 
image banner adimage banner adimage banner ad
image banner ad

SDNT - Fazenda Terra Prometida

Located in Porto Nacional, Brazil

ICAO - SDNT, IATA -

Data provided by Airmate  

General information

Coordinates: S10°24'52" W48°15'24"
Elevation is 889 feet MSL.
Magnetic variation is -21° East
View others Airports in Tocatins

Operational data

Special qualification required
Current time UTC:
Current local time:
METAR: SBPJ 221100Z 08007KT 040V120 9000 NSC 30/12 Q1013
TAF: TAF SBPJ 220035Z 2206/2306 16005KT 9999 FEW030 TN26/2209Z TX36/2218Z BECMG 2206/2208 12005KT BECMG 2210/2213 09012KT BECMG 2216/2219 27007KT BECMG 2220/2223 10006KT BECMG 2300/2303 13005KT RMK PHC
View NOTAMs / SUP AIP / TFR affecting this airport [VIEW]
Communications frequencies: [VIEW]

Runways:

RWY identifierQFULength (ft)Width (ft)SurfaceLDA (ft)
03397066ASPH
21397066ASPH

Airport contact information

Address: Porto Nacional Brazil

Satellite view of SDNT